sensor_id;sensor_type;location;lat;lon;timestamp;P1;durP1;ratioP1;P2;durP2;ratioP2
26211;SDS011;13951;49.516;6.094;2023-02-28T00:00:53;0.93;;;0.93;;
26211;SDS011;13951;49.516;6.094;2023-02-28T00:03:26;0.70;;;0.70;;
26211;SDS011;13951;49.516;6.094;2023-02-28T00:05:58;0.80;;;0.80;;
26211;SDS011;13951;49.516;6.094;2023-02-28T00:08:31;0.70;;;0.70;;
26211;SDS011;13951;49.516;6.094;2023-02-28T00:11:05;1.23;;;0.80;;
26211;SDS011;13951;49.516;6.094;2023-02-28T00:13:40;1.43;;;0.87;;
26211;SDS011;13951;49.516;6.094;2023-02-28T00:16:19;0.93;;;0.90;;
26211;SDS011;13951;49.516;6.094;2023-02-28T00:18:53;0.80;;;0.70;;
26211;SDS011;13951;49.516;6.094;2023-02-28T00:21:26;0.77;;;0.77;;
26211;SDS011;13951;49.516;6.094;2023-02-28T00:23:59;0.93;;;0.93;;
26211;SDS011;13951;49.516;6.094;2023-02-28T00:26:32;0.63;;;0.60;;
26211;SDS011;13951;49.516;6.094;2023-02-28T00:29:04;1.53;;;1.00;;
26211;SDS011;13951;49.516;6.094;2023-02-28T00:31:37;0.73;;;0.73;;
26211;SDS011;13951;49.516;6.094;2023-02-28T00:34:10;1.40;;;1.00;;
26211;SDS011;13951;49.516;6.094;2023-02-28T00:36:42;0.83;;;0.83;;
26211;SDS011;13951;49.516;6.094;2023-02-28T00:39:18;2.77;;;1.00;;
26211;SDS011;13951;49.516;6.094;2023-02-28T00:41:51;0.87;;;0.87;;
26211;SDS011;13951;49.516;6.094;2023-02-28T00:44:23;2.00;;;1.30;;
26211;SDS011;13951;49.516;6.094;2023-02-28T00:46:56;0.90;;;0.90;;
26211;SDS011;13951;49.516;6.094;2023-02-28T00:49:30;1.63;;;1.20;;
26211;SDS011;13951;49.516;6.094;2023-02-28T00:52:02;0.73;;;0.73;;
26211;SDS011;13951;49.516;6.094;2023-02-28T00:54:35;0.77;;;0.77;;
26211;SDS011;13951;49.516;6.094;2023-02-28T00:57:08;6.43;;;1.07;;
26211;SDS011;13951;49.516;6.094;2023-02-28T00:59:41;2.97;;;0.90;;
26211;SDS011;13951;49.516;6.094;2023-02-28T01:02:14;0.80;;;0.80;;
26211;SDS011;13951;49.516;6.094;2023-02-28T01:04:46;0.70;;;0.70;;
26211;SDS011;13951;49.516;6.094;2023-02-28T01:07:19;1.00;;;0.90;;
26211;SDS011;13951;49.516;6.094;2023-02-28T01:09:52;1.33;;;1.10;;
26211;SDS011;13951;49.516;6.094;2023-02-28T01:12:25;1.07;;;0.80;;
26211;SDS011;13951;49.516;6.094;2023-02-28T01:14:59;0.90;;;0.90;;
26211;SDS011;13951;49.516;6.094;2023-02-28T01:17:32;1.53;;;1.43;;
26211;SDS011;13951;49.516;6.094;2023-02-28T01:20:05;0.70;;;0.70;;
26211;SDS011;13951;49.516;6.094;2023-02-28T01:22:38;0.77;;;0.77;;
26211;SDS011;13951;49.516;6.094;2023-02-28T01:25:12;0.70;;;0.70;;
26211;SDS011;13951;49.516;6.094;2023-02-28T01:27:45;3.03;;;1.07;;
26211;SDS011;13951;49.516;6.094;2023-02-28T01:30:18;0.90;;;0.80;;
26211;SDS011;13951;49.516;6.094;2023-02-28T01:32:52;0.80;;;0.80;;
26211;SDS011;13951;49.516;6.094;2023-02-28T01:35:25;0.80;;;0.80;;
26211;SDS011;13951;49.516;6.094;2023-02-28T01:37:59;1.60;;;1.00;;
26211;SDS011;13951;49.516;6.094;2023-02-28T01:40:47;0.83;;;0.83;;
26211;SDS011;13951;49.516;6.094;2023-02-28T01:43:25;0.87;;;0.87;;
26211;SDS011;13951;49.516;6.094;2023-02-28T01:46:21;0.70;;;0.70;;
26211;SDS011;13951;49.516;6.094;2023-02-28T01:49:08;0.80;;;0.80;;
26211;SDS011;13951;49.516;6.094;2023-02-28T01:51:46;1.10;;;1.00;;
26211;SDS011;13951;49.516;6.094;2023-02-28T01:54:25;1.50;;;0.87;;
26211;SDS011;13951;49.516;6.094;2023-02-28T01:57:05;0.70;;;0.70;;
26211;SDS011;13951;49.516;6.094;2023-02-28T01:59:43;0.80;;;0.80;;
26211;SDS011;13951;49.516;6.094;2023-02-28T02:02:19;0.70;;;0.70;;
26211;SDS011;13951;49.516;6.094;2023-02-28T02:05:08;0.80;;;0.80;;
26211;SDS011;13951;49.516;6.094;2023-02-28T02:07:45;0.77;;;0.77;;
26211;SDS011;13951;49.516;6.094;2023-02-28T02:10:21;3.77;;;0.97;;
26211;SDS011;13951;49.516;6.094;2023-02-28T02:18:46;1.30;;;0.90;;
26211;SDS011;13951;49.516;6.094;2023-02-28T02:21:48;2.50;;;1.00;;
26211;SDS011;13951;49.516;6.094;2023-02-28T02:30:31;1.40;;;1.17;;
26211;SDS011;13951;49.516;6.094;2023-02-28T02:46:33;0.80;;;0.80;;
26211;SDS011;13951;49.516;6.094;2023-02-28T02:49:10;0.70;;;0.70;;
26211;SDS011;13951;49.516;6.094;2023-02-28T02:51:50;1.00;;;0.93;;
26211;SDS011;13951;49.516;6.094;2023-02-28T02:54:27;0.90;;;0.90;;
26211;SDS011;13951;49.516;6.094;2023-02-28T02:57:08;3.53;;;1.40;;
26211;SDS011;13951;49.516;6.094;2023-02-28T02:59:45;0.80;;;0.80;;
26211;SDS011;13951;49.516;6.094;2023-02-28T03:02:21;0.93;;;0.90;;
26211;SDS011;13951;49.516;6.094;2023-02-28T03:04:57;1.00;;;1.00;;
26211;SDS011;13951;49.516;6.094;2023-02-28T03:07:33;1.30;;;0.90;;
26211;SDS011;13951;49.516;6.094;2023-02-28T03:10:25;1.00;;;1.00;;
26211;SDS011;13951;49.516;6.094;2023-02-28T03:13:11;1.97;;;1.03;;
26211;SDS011;13951;49.516;6.094;2023-02-28T03:19:28;0.90;;;0.90;;
26211;SDS011;13951;49.516;6.094;2023-02-28T03:22:14;1.70;;;1.20;;
26211;SDS011;13951;49.516;6.094;2023-02-28T03:25:05;1.00;;;1.00;;
26211;SDS011;13951;49.516;6.094;2023-02-28T03:27:55;0.90;;;0.90;;
26211;SDS011;13951;49.516;6.094;2023-02-28T03:30:39;4.20;;;1.13;;
26211;SDS011;13951;49.516;6.094;2023-02-28T03:33:34;1.23;;;1.07;;
26211;SDS011;13951;49.516;6.094;2023-02-28T03:36:13;1.87;;;0.83;;
26211;SDS011;13951;49.516;6.094;2023-02-28T03:38:51;1.53;;;1.10;;
26211;SDS011;13951;49.516;6.094;2023-02-28T03:44:34;1.97;;;1.20;;
26211;SDS011;13951;49.516;6.094;2023-02-28T03:47:33;0.63;;;0.63;;
26211;SDS011;13951;49.516;6.094;2023-02-28T03:53:00;0.90;;;0.90;;
26211;SDS011;13951;49.516;6.094;2023-02-28T03:55:43;1.17;;;1.00;;
26211;SDS011;13951;49.516;6.094;2023-02-28T03:58:27;1.00;;;0.90;;
26211;SDS011;13951;49.516;6.094;2023-02-28T04:01:09;2.83;;;1.40;;
26211;SDS011;13951;49.516;6.094;2023-02-28T04:03:47;1.40;;;1.00;;
26211;SDS011;13951;49.516;6.094;2023-02-28T04:06:22;1.70;;;1.27;;
26211;SDS011;13951;49.516;6.094;2023-02-28T04:08:56;1.67;;;1.50;;
26211;SDS011;13951;49.516;6.094;2023-02-28T04:11:33;1.95;;;1.40;;
26211;SDS011;13951;49.516;6.094;2023-02-28T04:14:08;2.00;;;1.20;;
26211;SDS011;13951;49.516;6.094;2023-02-28T04:16:42;3.27;;;1.10;;
26211;SDS011;13951;49.516;6.094;2023-02-28T04:19:15;0.97;;;0.90;;
26211;SDS011;13951;49.516;6.094;2023-02-28T04:21:49;0.83;;;0.83;;
26211;SDS011;13951;49.516;6.094;2023-02-28T04:24:26;1.27;;;1.00;;
26211;SDS011;13951;49.516;6.094;2023-02-28T04:27:00;1.20;;;1.10;;
26211;SDS011;13951;49.516;6.094;2023-02-28T04:29:33;3.67;;;1.20;;
26211;SDS011;13951;49.516;6.094;2023-02-28T04:32:05;1.23;;;1.10;;
26211;SDS011;13951;49.516;6.094;2023-02-28T04:34:38;1.20;;;1.03;;
26211;SDS011;13951;49.516;6.094;2023-02-28T04:37:11;1.17;;;0.90;;
26211;SDS011;13951;49.516;6.094;2023-02-28T04:39:45;3.30;;;1.63;;
26211;SDS011;13951;49.516;6.094;2023-02-28T04:42:18;2.10;;;1.50;;
26211;SDS011;13951;49.516;6.094;2023-02-28T04:44:51;2.20;;;1.67;;
26211;SDS011;13951;49.516;6.094;2023-02-28T04:47:23;4.40;;;1.30;;
26211;SDS011;13951;49.516;6.094;2023-02-28T04:49:56;1.60;;;1.33;;
26211;SDS011;13951;49.516;6.094;2023-02-28T04:52:29;4.73;;;1.60;;
26211;SDS011;13951;49.516;6.094;2023-02-28T04:55:02;2.23;;;1.60;;
26211;SDS011;13951;49.516;6.094;2023-02-28T04:57:35;1.50;;;1.40;;
26211;SDS011;13951;49.516;6.094;2023-02-28T05:00:08;1.60;;;1.40;;
26211;SDS011;13951;49.516;6.094;2023-02-28T05:02:43;2.70;;;1.60;;
26211;SDS011;13951;49.516;6.094;2023-02-28T05:05:16;2.13;;;1.80;;
26211;SDS011;13951;49.516;6.094;2023-02-28T05:07:50;2.57;;;1.60;;
26211;SDS011;13951;49.516;6.094;2023-02-28T05:10:23;2.20;;;1.60;;
26211;SDS011;13951;49.516;6.094;2023-02-28T05:12:56;3.13;;;2.00;;
26211;SDS011;13951;49.516;6.094;2023-02-28T05:15:28;1.83;;;1.40;;
26211;SDS011;13951;49.516;6.094;2023-02-28T05:18:01;2.33;;;1.80;;
26211;SDS011;13951;49.516;6.094;2023-02-28T05:20:34;6.27;;;1.60;;
26211;SDS011;13951;49.516;6.094;2023-02-28T05:23:07;4.67;;;1.70;;
26211;SDS011;13951;49.516;6.094;2023-02-28T05:25:43;2.60;;;1.77;;
26211;SDS011;13951;49.516;6.094;2023-02-28T05:28:15;2.23;;;1.90;;
26211;SDS011;13951;49.516;6.094;2023-02-28T05:30:48;2.63;;;1.63;;
26211;SDS011;13951;49.516;6.094;2023-02-28T05:33:21;3.97;;;1.97;;
26211;SDS011;13951;49.516;6.094;2023-02-28T05:35:54;2.67;;;1.80;;
26211;SDS011;13951;49.516;6.094;2023-02-28T05:38:26;2.27;;;1.63;;
26211;SDS011;13951;49.516;6.094;2023-02-28T05:40:59;2.87;;;1.73;;
26211;SDS011;13951;49.516;6.094;2023-02-28T05:43:32;2.17;;;1.90;;
26211;SDS011;13951;49.516;6.094;2023-02-28T05:46:07;2.57;;;1.80;;
26211;SDS011;13951;49.516;6.094;2023-02-28T05:48:41;2.10;;;1.83;;
26211;SDS011;13951;49.516;6.094;2023-02-28T05:51:17;3.17;;;2.37;;
26211;SDS011;13951;49.516;6.094;2023-02-28T05:53:50;2.93;;;1.70;;
26211;SDS011;13951;49.516;6.094;2023-02-28T05:56:23;2.47;;;1.70;;
26211;SDS011;13951;49.516;6.094;2023-02-28T05:58:56;6.03;;;2.10;;
26211;SDS011;13951;49.516;6.094;2023-02-28T06:01:36;3.53;;;2.30;;
26211;SDS011;13951;49.516;6.094;2023-02-28T06:04:10;3.30;;;2.60;;
26211;SDS011;13951;49.516;6.094;2023-02-28T06:07:02;3.73;;;2.43;;
26211;SDS011;13951;49.516;6.094;2023-02-28T06:09:35;2.37;;;1.83;;
26211;SDS011;13951;49.516;6.094;2023-02-28T06:12:09;3.10;;;2.23;;
26211;SDS011;13951;49.516;6.094;2023-02-28T06:14:42;3.03;;;2.50;;
26211;SDS011;13951;49.516;6.094;2023-02-28T06:17:15;4.63;;;2.30;;
26211;SDS011;13951;49.516;6.094;2023-02-28T06:19:47;3.40;;;2.40;;
26211;SDS011;13951;49.516;6.094;2023-02-28T06:22:20;4.53;;;2.63;;
26211;SDS011;13951;49.516;6.094;2023-02-28T06:24:53;3.63;;;2.17;;
26211;SDS011;13951;49.516;6.094;2023-02-28T06:27:27;2.33;;;1.83;;
26211;SDS011;13951;49.516;6.094;2023-02-28T06:29:59;5.57;;;3.22;;
26211;SDS011;13951;49.516;6.094;2023-02-28T06:32:32;4.17;;;2.43;;
26211;SDS011;13951;49.516;6.094;2023-02-28T06:35:05;3.87;;;2.60;;
26211;SDS011;13951;49.516;6.094;2023-02-28T06:37:38;2.33;;;2.07;;
26211;SDS011;13951;49.516;6.094;2023-02-28T06:40:13;3.87;;;2.10;;
26211;SDS011;13951;49.516;6.094;2023-02-28T06:42:46;4.63;;;2.63;;
26211;SDS011;13951;49.516;6.094;2023-02-28T06:45:19;4.83;;;2.53;;
26211;SDS011;13951;49.516;6.094;2023-02-28T06:47:52;3.37;;;2.50;;
26211;SDS011;13951;49.516;6.094;2023-02-28T06:50:25;5.67;;;2.40;;
26211;SDS011;13951;49.516;6.094;2023-02-28T06:52:57;5.75;;;3.88;;
26211;SDS011;13951;49.516;6.094;2023-02-28T06:55:30;3.53;;;2.03;;
26211;SDS011;13951;49.516;6.094;2023-02-28T06:58:03;4.13;;;3.30;;
26211;SDS011;13951;49.516;6.094;2023-02-28T07:00:45;5.70;;;3.10;;
26211;SDS011;13951;49.516;6.094;2023-02-28T07:03:22;2.97;;;2.33;;
26211;SDS011;13951;49.516;6.094;2023-02-28T07:05:55;5.30;;;2.50;;
26211;SDS011;13951;49.516;6.094;2023-02-28T07:08:28;2.63;;;2.37;;
26211;SDS011;13951;49.516;6.094;2023-02-28T07:11:01;2.13;;;1.70;;
26211;SDS011;13951;49.516;6.094;2023-02-28T07:13:34;3.87;;;2.40;;
26211;SDS011;13951;49.516;6.094;2023-02-28T07:16:09;3.10;;;2.33;;
26211;SDS011;13951;49.516;6.094;2023-02-28T07:18:43;4.17;;;2.80;;
26211;SDS011;13951;49.516;6.094;2023-02-28T07:21:16;2.33;;;2.07;;
26211;SDS011;13951;49.516;6.094;2023-02-28T07:23:48;4.87;;;2.60;;
26211;SDS011;13951;49.516;6.094;2023-02-28T07:26:22;3.23;;;2.30;;
26211;SDS011;13951;49.516;6.094;2023-02-28T07:28:54;3.40;;;2.70;;
26211;SDS011;13951;49.516;6.094;2023-02-28T07:31:27;3.47;;;2.20;;
26211;SDS011;13951;49.516;6.094;2023-02-28T07:34:00;3.20;;;2.40;;
26211;SDS011;13951;49.516;6.094;2023-02-28T07:36:35;5.77;;;3.40;;
26211;SDS011;13951;49.516;6.094;2023-02-28T07:39:07;3.30;;;2.60;;
26211;SDS011;13951;49.516;6.094;2023-02-28T07:41:41;6.77;;;2.60;;
26211;SDS011;13951;49.516;6.094;2023-02-28T07:44:15;3.23;;;2.80;;
26211;SDS011;13951;49.516;6.094;2023-02-28T07:46:48;1.70;;;1.57;;
26211;SDS011;13951;49.516;6.094;2023-02-28T07:49:21;4.27;;;2.83;;
26211;SDS011;13951;49.516;6.094;2023-02-28T07:51:54;4.47;;;2.40;;
26211;SDS011;13951;49.516;6.094;2023-02-28T07:54:26;2.33;;;2.10;;
26211;SDS011;13951;49.516;6.094;2023-02-28T07:56:59;3.03;;;2.27;;
26211;SDS011;13951;49.516;6.094;2023-02-28T07:59:32;3.20;;;2.30;;
26211;SDS011;13951;49.516;6.094;2023-02-28T08:02:05;2.50;;;2.13;;
26211;SDS011;13951;49.516;6.094;2023-02-28T08:04:37;2.93;;;1.70;;
26211;SDS011;13951;49.516;6.094;2023-02-28T08:07:12;3.43;;;2.10;;
26211;SDS011;13951;49.516;6.094;2023-02-28T08:09:45;4.30;;;2.50;;
26211;SDS011;13951;49.516;6.094;2023-02-28T08:12:18;3.07;;;2.40;;
26211;SDS011;13951;49.516;6.094;2023-02-28T08:14:51;4.03;;;2.63;;
26211;SDS011;13951;49.516;6.094;2023-02-28T08:17:23;2.10;;;1.70;;
26211;SDS011;13951;49.516;6.094;2023-02-28T08:19:56;5.27;;;2.90;;
26211;SDS011;13951;49.516;6.094;2023-02-28T08:22:29;3.87;;;2.33;;
26211;SDS011;13951;49.516;6.094;2023-02-28T08:25:01;2.23;;;1.97;;
26211;SDS011;13951;49.516;6.094;2023-02-28T08:27:35;2.97;;;2.30;;
26211;SDS011;13951;49.516;6.094;2023-02-28T08:30:12;6.13;;;2.43;;
26211;SDS011;13951;49.516;6.094;2023-02-28T08:32:46;3.50;;;2.40;;
26211;SDS011;13951;49.516;6.094;2023-02-28T08:35:19;3.37;;;2.47;;
26211;SDS011;13951;49.516;6.094;2023-02-28T08:37:52;2.97;;;2.43;;
26211;SDS011;13951;49.516;6.094;2023-02-28T08:40:24;2.30;;;1.90;;
26211;SDS011;13951;49.516;6.094;2023-02-28T08:42:57;3.80;;;2.93;;
26211;SDS011;13951;49.516;6.094;2023-02-28T08:45:31;4.53;;;2.63;;
26211;SDS011;13951;49.516;6.094;2023-02-28T08:48:04;4.60;;;2.57;;
26211;SDS011;13951;49.516;6.094;2023-02-28T08:50:37;5.70;;;2.70;;
26211;SDS011;13951;49.516;6.094;2023-02-28T08:53:09;3.37;;;2.30;;
26211;SDS011;13951;49.516;6.094;2023-02-28T08:55:42;6.50;;;2.50;;
26211;SDS011;13951;49.516;6.094;2023-02-28T08:58:15;2.47;;;2.13;;
26211;SDS011;13951;49.516;6.094;2023-02-28T09:00:48;4.53;;;3.00;;
26211;SDS011;13951;49.516;6.094;2023-02-28T09:03:21;4.67;;;2.03;;
26211;SDS011;13951;49.516;6.094;2023-02-28T09:05:57;2.40;;;1.87;;
26211;SDS011;13951;49.516;6.094;2023-02-28T09:08:32;1.67;;;1.17;;
26211;SDS011;13951;49.516;6.094;2023-02-28T09:11:05;2.30;;;1.83;;
26211;SDS011;13951;49.516;6.094;2023-02-28T09:13:38;4.07;;;2.47;;
26211;SDS011;13951;49.516;6.094;2023-02-28T09:16:12;3.70;;;2.20;;
26211;SDS011;13951;49.516;6.094;2023-02-28T09:18:47;2.80;;;2.20;;
26211;SDS011;13951;49.516;6.094;2023-02-28T09:21:20;6.20;;;2.27;;
26211;SDS011;13951;49.516;6.094;2023-02-28T09:23:53;6.87;;;1.80;;
26211;SDS011;13951;49.516;6.094;2023-02-28T09:26:26;4.17;;;2.53;;
26211;SDS011;13951;49.516;6.094;2023-02-28T09:29:13;3.17;;;1.77;;
26211;SDS011;13951;49.516;6.094;2023-02-28T09:31:48;3.77;;;2.00;;
26211;SDS011;13951;49.516;6.094;2023-02-28T09:34:22;1.50;;;1.40;;
26211;SDS011;13951;49.516;6.094;2023-02-28T09:36:55;3.80;;;2.50;;
26211;SDS011;13951;49.516;6.094;2023-02-28T09:39:27;2.67;;;2.03;;
26211;SDS011;13951;49.516;6.094;2023-02-28T09:42:01;4.43;;;1.93;;
26211;SDS011;13951;49.516;6.094;2023-02-28T09:44:40;2.00;;;1.70;;
26211;SDS011;13951;49.516;6.094;2023-02-28T09:52:55;1.37;;;1.23;;
26211;SDS011;13951;49.516;6.094;2023-02-28T09:55:39;2.00;;;1.70;;
26211;SDS011;13951;49.516;6.094;2023-02-28T09:58:39;1.40;;;1.30;;
26211;SDS011;13951;49.516;6.094;2023-02-28T10:01:24;2.53;;;1.80;;
26211;SDS011;13951;49.516;6.094;2023-02-28T10:04:26;2.10;;;1.57;;
26211;SDS011;13951;49.516;6.094;2023-02-28T10:07:37;2.73;;;1.87;;
26211;SDS011;13951;49.516;6.094;2023-02-28T10:13:01;2.23;;;1.50;;
26211;SDS011;13951;49.516;6.094;2023-02-28T10:15:37;1.30;;;1.20;;
26211;SDS011;13951;49.516;6.094;2023-02-28T10:18:12;1.90;;;1.70;;
26211;SDS011;13951;49.516;6.094;2023-02-28T10:20:48;2.23;;;1.77;;
26211;SDS011;13951;49.516;6.094;2023-02-28T10:23:26;1.80;;;1.60;;
26211;SDS011;13951;49.516;6.094;2023-02-28T10:26:16;1.53;;;1.43;;
26211;SDS011;13951;49.516;6.094;2023-02-28T10:28:49;1.23;;;1.13;;
26211;SDS011;13951;49.516;6.094;2023-02-28T10:31:25;1.67;;;1.57;;
26211;SDS011;13951;49.516;6.094;2023-02-28T10:33:57;1.83;;;1.73;;
26211;SDS011;13951;49.516;6.094;2023-02-28T10:36:30;2.67;;;1.70;;
26211;SDS011;13951;49.516;6.094;2023-02-28T10:39:33;2.23;;;1.60;;
26211;SDS011;13951;49.516;6.094;2023-02-28T10:45:15;2.33;;;1.73;;
26211;SDS011;13951;49.516;6.094;2023-02-28T10:58:51;1.73;;;1.60;;
26211;SDS011;13951;49.516;6.094;2023-02-28T11:01:40;2.47;;;1.73;;
26211;SDS011;13951;49.516;6.094;2023-02-28T11:04:19;1.53;;;1.30;;
26211;SDS011;13951;49.516;6.094;2023-02-28T11:07:17;1.37;;;1.00;;
26211;SDS011;13951;49.516;6.094;2023-02-28T11:09:56;3.63;;;2.13;;
26211;SDS011;13951;49.516;6.094;2023-02-28T11:12:35;1.97;;;1.77;;
26211;SDS011;13951;49.516;6.094;2023-02-28T11:15:24;1.80;;;1.67;;
26211;SDS011;13951;49.516;6.094;2023-02-28T11:18:22;2.17;;;1.77;;
26211;SDS011;13951;49.516;6.094;2023-02-28T11:21:06;2.83;;;2.20;;
26211;SDS011;13951;49.516;6.094;2023-02-28T11:23:40;2.60;;;1.80;;
26211;SDS011;13951;49.516;6.094;2023-02-28T11:26:13;2.30;;;2.07;;
26211;SDS011;13951;49.516;6.094;2023-02-28T11:28:46;1.80;;;1.23;;
26211;SDS011;13951;49.516;6.094;2023-02-28T11:31:19;2.73;;;1.83;;
26211;SDS011;13951;49.516;6.094;2023-02-28T11:33:55;2.73;;;1.70;;
26211;SDS011;13951;49.516;6.094;2023-02-28T11:36:29;2.80;;;1.83;;
26211;SDS011;13951;49.516;6.094;2023-02-28T11:39:10;2.27;;;1.90;;
26211;SDS011;13951;49.516;6.094;2023-02-28T11:44:43;1.73;;;1.50;;
26211;SDS011;13951;49.516;6.094;2023-02-28T11:47:38;2.97;;;2.20;;
26211;SDS011;13951;49.516;6.094;2023-02-28T11:53:05;3.08;;;2.70;;
26211;SDS011;13951;49.516;6.094;2023-02-28T11:56:03;3.83;;;2.10;;
26211;SDS011;13951;49.516;6.094;2023-02-28T12:10:30;2.40;;;2.17;;
26211;SDS011;13951;49.516;6.094;2023-02-28T12:13:18;3.25;;;2.58;;
26211;SDS011;13951;49.516;6.094;2023-02-28T12:21:59;2.47;;;1.87;;
26211;SDS011;13951;49.516;6.094;2023-02-28T12:27:19;2.20;;;2.00;;
26211;SDS011;13951;49.516;6.094;2023-02-28T12:29:59;3.13;;;1.93;;
26211;SDS011;13951;49.516;6.094;2023-02-28T12:32:49;2.43;;;2.10;;
26211;SDS011;13951;49.516;6.094;2023-02-28T12:35:33;4.47;;;2.27;;
26211;SDS011;13951;49.516;6.094;2023-02-28T12:38:46;3.27;;;2.10;;
26211;SDS011;13951;49.516;6.094;2023-02-28T12:41:17;2.73;;;2.27;;
26211;SDS011;13951;49.516;6.094;2023-02-28T12:44:00;2.83;;;1.90;;
26211;SDS011;13951;49.516;6.094;2023-02-28T12:46:37;4.20;;;2.53;;
26211;SDS011;13951;49.516;6.094;2023-02-28T12:49:19;3.43;;;2.33;;
26211;SDS011;13951;49.516;6.094;2023-02-28T12:52:11;2.93;;;2.27;;
26211;SDS011;13951;49.516;6.094;2023-02-28T12:54:57;4.27;;;2.23;;
26211;SDS011;13951;49.516;6.094;2023-02-28T12:57:38;2.50;;;2.00;;
26211;SDS011;13951;49.516;6.094;2023-02-28T13:00:20;3.33;;;1.73;;
26211;SDS011;13951;49.516;6.094;2023-02-28T13:05:50;3.30;;;2.00;;
26211;SDS011;13951;49.516;6.094;2023-02-28T13:11:24;1.30;;;1.20;;
26211;SDS011;13951;49.516;6.094;2023-02-28T13:14:05;3.03;;;1.63;;
26211;SDS011;13951;49.516;6.094;2023-02-28T13:19:31;1.70;;;1.60;;
26211;SDS011;13951;49.516;6.094;2023-02-28T13:22:15;4.53;;;2.13;;
26211;SDS011;13951;49.516;6.094;2023-02-28T13:24:53;2.70;;;1.90;;
26211;SDS011;13951;49.516;6.094;2023-02-28T13:27:35;1.60;;;1.50;;
26211;SDS011;13951;49.516;6.094;2023-02-28T13:33:27;2.80;;;2.00;;
26211;SDS011;13951;49.516;6.094;2023-02-28T13:47:39;3.50;;;2.17;;
26211;SDS011;13951;49.516;6.094;2023-02-28T13:50:32;3.23;;;2.10;;
26211;SDS011;13951;49.516;6.094;2023-02-28T13:58:46;2.67;;;2.20;;
26211;SDS011;13951;49.516;6.094;2023-02-28T14:07:20;1.87;;;1.70;;
26211;SDS011;13951;49.516;6.094;2023-02-28T14:10:06;4.03;;;2.47;;
26211;SDS011;13951;49.516;6.094;2023-02-28T14:15:38;3.80;;;3.08;;
26211;SDS011;13951;49.516;6.094;2023-02-28T14:18:16;3.87;;;2.60;;
26211;SDS011;13951;49.516;6.094;2023-02-28T14:20:51;1.60;;;1.20;;
26211;SDS011;13951;49.516;6.094;2023-02-28T14:35:57;3.73;;;2.50;;
26211;SDS011;13951;49.516;6.094;2023-02-28T14:38:35;5.60;;;2.88;;
26211;SDS011;13951;49.516;6.094;2023-02-28T14:41:36;3.73;;;2.13;;
26211;SDS011;13951;49.516;6.094;2023-02-28T14:44:15;2.87;;;2.50;;
26211;SDS011;13951;49.516;6.094;2023-02-28T14:46:52;3.77;;;2.03;;
26211;SDS011;13951;49.516;6.094;2023-02-28T14:49:42;2.90;;;2.60;;
26211;SDS011;13951;49.516;6.094;2023-02-28T14:54:58;3.57;;;2.20;;
26211;SDS011;13951;49.516;6.094;2023-02-28T14:57:34;4.07;;;2.83;;
26211;SDS011;13951;49.516;6.094;2023-02-28T15:00:13;2.90;;;2.20;;
26211;SDS011;13951;49.516;6.094;2023-02-28T15:02:49;3.30;;;2.43;;
26211;SDS011;13951;49.516;6.094;2023-02-28T15:08:03;3.00;;;2.57;;
26211;SDS011;13951;49.516;6.094;2023-02-28T15:10:39;3.80;;;2.60;;
26211;SDS011;13951;49.516;6.094;2023-02-28T15:13:36;3.50;;;2.57;;
26211;SDS011;13951;49.516;6.094;2023-02-28T15:16:12;3.40;;;2.27;;
26211;SDS011;13951;49.516;6.094;2023-02-28T15:18:49;2.07;;;1.70;;
26211;SDS011;13951;49.516;6.094;2023-02-28T15:21:25;1.43;;;1.33;;
26211;SDS011;13951;49.516;6.094;2023-02-28T15:24:15;1.60;;;1.30;;
26211;SDS011;13951;49.516;6.094;2023-02-28T15:26:59;2.53;;;1.70;;
26211;SDS011;13951;49.516;6.094;2023-02-28T15:29:45;1.57;;;1.43;;
26211;SDS011;13951;49.516;6.094;2023-02-28T15:32:30;2.23;;;1.83;;
26211;SDS011;13951;49.516;6.094;2023-02-28T15:35:18;2.93;;;2.57;;
26211;SDS011;13951;49.516;6.094;2023-02-28T15:38:00;4.17;;;2.60;;
26211;SDS011;13951;49.516;6.094;2023-02-28T15:40:38;2.00;;;1.73;;
26211;SDS011;13951;49.516;6.094;2023-02-28T15:43:15;3.47;;;2.40;;
26211;SDS011;13951;49.516;6.094;2023-02-28T15:45:51;2.10;;;1.90;;
26211;SDS011;13951;49.516;6.094;2023-02-28T15:48:31;3.47;;;2.43;;
26211;SDS011;13951;49.516;6.094;2023-02-28T15:51:29;2.40;;;2.20;;
26211;SDS011;13951;49.516;6.094;2023-02-28T15:54:12;3.07;;;2.00;;
26211;SDS011;13951;49.516;6.094;2023-02-28T15:56:57;5.63;;;2.73;;
26211;SDS011;13951;49.516;6.094;2023-02-28T15:59:33;3.63;;;1.47;;
26211;SDS011;13951;49.516;6.094;2023-02-28T16:02:15;3.83;;;2.50;;
26211;SDS011;13951;49.516;6.094;2023-02-28T16:07:30;1.93;;;1.33;;
26211;SDS011;13951;49.516;6.094;2023-02-28T16:10:04;3.53;;;2.70;;
26211;SDS011;13951;49.516;6.094;2023-02-28T16:12:39;1.73;;;1.63;;
26211;SDS011;13951;49.516;6.094;2023-02-28T16:15:23;4.50;;;2.47;;
26211;SDS011;13951;49.516;6.094;2023-02-28T16:17:58;6.13;;;2.80;;
26211;SDS011;13951;49.516;6.094;2023-02-28T16:20:31;3.57;;;2.73;;
26211;SDS011;13951;49.516;6.094;2023-02-28T16:23:03;2.87;;;2.63;;
26211;SDS011;13951;49.516;6.094;2023-02-28T16:25:38;4.10;;;2.93;;
26211;SDS011;13951;49.516;6.094;2023-02-28T16:28:18;4.57;;;2.87;;
26211;SDS011;13951;49.516;6.094;2023-02-28T16:31:05;5.63;;;3.13;;
26211;SDS011;13951;49.516;6.094;2023-02-28T16:33:39;3.00;;;2.40;;
26211;SDS011;13951;49.516;6.094;2023-02-28T16:36:20;3.90;;;2.90;;
26211;SDS011;13951;49.516;6.094;2023-02-28T16:38:57;4.43;;;2.80;;
26211;SDS011;13951;49.516;6.094;2023-02-28T16:41:30;5.40;;;2.20;;
26211;SDS011;13951;49.516;6.094;2023-02-28T16:44:03;4.13;;;2.63;;
26211;SDS011;13951;49.516;6.094;2023-02-28T16:46:44;4.07;;;2.83;;
26211;SDS011;13951;49.516;6.094;2023-02-28T16:49:16;5.03;;;3.53;;
26211;SDS011;13951;49.516;6.094;2023-02-28T16:51:49;5.23;;;2.93;;
26211;SDS011;13951;49.516;6.094;2023-02-28T16:54:22;5.73;;;2.77;;
26211;SDS011;13951;49.516;6.094;2023-02-28T16:56:55;3.93;;;2.73;;
26211;SDS011;13951;49.516;6.094;2023-02-28T16:59:27;4.77;;;2.97;;
26211;SDS011;13951;49.516;6.094;2023-02-28T17:02:01;3.70;;;2.40;;
26211;SDS011;13951;49.516;6.094;2023-02-28T17:04:33;5.00;;;3.10;;
26211;SDS011;13951;49.516;6.094;2023-02-28T17:07:15;3.90;;;2.87;;
26211;SDS011;13951;49.516;6.094;2023-02-28T17:09:48;5.00;;;3.00;;
26211;SDS011;13951;49.516;6.094;2023-02-28T17:12:21;5.30;;;2.83;;
26211;SDS011;13951;49.516;6.094;2023-02-28T17:14:54;5.30;;;2.87;;
26211;SDS011;13951;49.516;6.094;2023-02-28T17:17:27;3.37;;;2.67;;
26211;SDS011;13951;49.516;6.094;2023-02-28T17:20:01;4.73;;;3.10;;
26211;SDS011;13951;49.516;6.094;2023-02-28T17:22:35;7.57;;;3.63;;
26211;SDS011;13951;49.516;6.094;2023-02-28T17:25:08;5.47;;;3.00;;
26211;SDS011;13951;49.516;6.094;2023-02-28T17:27:42;4.03;;;2.90;;
26211;SDS011;13951;49.516;6.094;2023-02-28T17:30:16;5.30;;;3.60;;
26211;SDS011;13951;49.516;6.094;2023-02-28T17:32:51;7.40;;;3.17;;
26211;SDS011;13951;49.516;6.094;2023-02-28T17:35:23;5.47;;;2.93;;
26211;SDS011;13951;49.516;6.094;2023-02-28T17:37:58;6.43;;;3.20;;
26211;SDS011;13951;49.516;6.094;2023-02-28T17:40:31;4.90;;;2.40;;
26211;SDS011;13951;49.516;6.094;2023-02-28T17:43:05;4.43;;;2.77;;
26211;SDS011;13951;49.516;6.094;2023-02-28T17:45:38;4.00;;;2.80;;
26211;SDS011;13951;49.516;6.094;2023-02-28T17:48:11;12.67;;;6.33;;
26211;SDS011;13951;49.516;6.094;2023-02-28T17:50:44;15.00;;;8.50;;
26211;SDS011;13951;49.516;6.094;2023-02-28T17:53:17;7.37;;;3.43;;
26211;SDS011;13951;49.516;6.094;2023-02-28T17:55:50;4.70;;;3.23;;
26211;SDS011;13951;49.516;6.094;2023-02-28T17:58:23;6.47;;;3.67;;
26211;SDS011;13951;49.516;6.094;2023-02-28T18:00:55;8.30;;;3.30;;
26211;SDS011;13951;49.516;6.094;2023-02-28T18:03:28;5.03;;;2.93;;
26211;SDS011;13951;49.516;6.094;2023-02-28T18:06:02;3.73;;;3.00;;
26211;SDS011;13951;49.516;6.094;2023-02-28T18:08:35;5.40;;;3.20;;